sensor_id;sensor_type;location;lat;lon;timestamp;temperature;humidity
13148;DHT22;6639;50.956;4.242;2023-12-20T00:01:18;13.00;99.90
13148;DHT22;6639;50.956;4.242;2023-12-20T00:03:45;12.80;99.90
13148;DHT22;6639;50.956;4.242;2023-12-20T00:06:14;12.80;99.90
13148;DHT22;6639;50.956;4.242;2023-12-20T00:08:41;12.80;99.90
13148;DHT22;6639;50.956;4.242;2023-12-20T00:11:09;12.80;99.90
13148;DHT22;6639;50.956;4.242;2023-12-20T00:13:36;13.00;99.90
13148;DHT22;6639;50.956;4.242;2023-12-20T00:16:03;13.00;99.90
13148;DHT22;6639;50.956;4.242;2023-12-20T00:18:30;12.90;99.90
13148;DHT22;6639;50.956;4.242;2023-12-20T00:20:57;12.90;99.90
13148;DHT22;6639;50.956;4.242;2023-12-20T00:23:25;12.80;99.90
13148;DHT22;6639;50.956;4.242;2023-12-20T00:25:52;12.60;99.90
13148;DHT22;6639;50.956;4.242;2023-12-20T00:28:19;12.80;99.90
13148;DHT22;6639;50.956;4.242;2023-12-20T00:30:46;12.80;99.90
13148;DHT22;6639;50.956;4.242;2023-12-20T00:33:13;12.90;99.90
13148;DHT22;6639;50.956;4.242;2023-12-20T00:35:40;12.80;99.90
13148;DHT22;6639;50.956;4.242;2023-12-20T00:38:08;12.70;99.90
13148;DHT22;6639;50.956;4.242;2023-12-20T00:40:37;12.40;99.90
13148;DHT22;6639;50.956;4.242;2023-12-20T00:43:04;12.30;99.90
13148;DHT22;6639;50.956;4.242;2023-12-20T00:45:31;12.10;99.90
13148;DHT22;6639;50.956;4.242;2023-12-20T00:47:58;11.80;99.90
13148;DHT22;6639;50.956;4.242;2023-12-20T00:50:25;11.90;99.90
13148;DHT22;6639;50.956;4.242;2023-12-20T00:52:52;12.00;99.90
13148;DHT22;6639;50.956;4.242;2023-12-20T00:55:20;12.10;99.90
13148;DHT22;6639;50.956;4.242;2023-12-20T00:57:48;11.80;99.90
13148;DHT22;6639;50.956;4.242;2023-12-20T01:00:15;11.90;99.90
13148;DHT22;6639;50.956;4.242;2023-12-20T01:02:42;12.00;99.90
13148;DHT22;6639;50.956;4.242;2023-12-20T01:05:09;11.60;99.90
13148;DHT22;6639;50.956;4.242;2023-12-20T01:07:36;11.60;99.90
13148;DHT22;6639;50.956;4.242;2023-12-20T01:10:03;11.70;99.90
13148;DHT22;6639;50.956;4.242;2023-12-20T01:12:31;11.80;99.90
13148;DHT22;6639;50.956;4.242;2023-12-20T01:14:59;11.80;99.90
13148;DHT22;6639;50.956;4.242;2023-12-20T01:17:26;11.80;99.90
13148;DHT22;6639;50.956;4.242;2023-12-20T01:19:53;11.70;99.90
13148;DHT22;6639;50.956;4.242;2023-12-20T01:22:20;11.90;99.90
13148;DHT22;6639;50.956;4.242;2023-12-20T01:24:46;12.00;99.90
13148;DHT22;6639;50.956;4.242;2023-12-20T01:27:13;12.10;99.90
13148;DHT22;6639;50.956;4.242;2023-12-20T01:29:40;12.00;99.90
13148;DHT22;6639;50.956;4.242;2023-12-20T01:32:09;12.10;99.90
13148;DHT22;6639;50.956;4.242;2023-12-20T01:34:36;12.40;99.90
13148;DHT22;6639;50.956;4.242;2023-12-20T01:37:03;12.40;99.90
13148;DHT22;6639;50.956;4.242;2023-12-20T01:39:30;12.30;99.90
13148;DHT22;6639;50.956;4.242;2023-12-20T01:41:57;12.20;99.90
13148;DHT22;6639;50.956;4.242;2023-12-20T01:44:23;12.20;99.90
13148;DHT22;6639;50.956;4.242;2023-12-20T01:46:50;12.50;99.90
13148;DHT22;6639;50.956;4.242;2023-12-20T01:49:19;12.50;99.90
13148;DHT22;6639;50.956;4.242;2023-12-20T01:51:46;12.00;99.90
13148;DHT22;6639;50.956;4.242;2023-12-20T01:54:13;11.70;99.90
13148;DHT22;6639;50.956;4.242;2023-12-20T01:56:41;11.60;99.90
13148;DHT22;6639;50.956;4.242;2023-12-20T01:59:08;11.80;99.90
13148;DHT22;6639;50.956;4.242;2023-12-20T02:01:35;11.90;99.90
13148;DHT22;6639;50.956;4.242;2023-12-20T02:04:03;11.70;99.90
13148;DHT22;6639;50.956;4.242;2023-12-20T02:06:34;11.60;99.90
13148;DHT22;6639;50.956;4.242;2023-12-20T02:09:01;11.60;99.90
13148;DHT22;6639;50.956;4.242;2023-12-20T02:11:28;11.50;99.90
13148;DHT22;6639;50.956;4.242;2023-12-20T02:13:55;11.60;99.90
13148;DHT22;6639;50.956;4.242;2023-12-20T02:16:22;11.60;99.90
13148;DHT22;6639;50.956;4.242;2023-12-20T02:18:49;11.70;99.90
13148;DHT22;6639;50.956;4.242;2023-12-20T02:21:24;11.70;99.90
13148;DHT22;6639;50.956;4.242;2023-12-20T02:23:51;11.40;99.90
13148;DHT22;6639;50.956;4.242;2023-12-20T02:26:18;11.00;99.90
13148;DHT22;6639;50.956;4.242;2023-12-20T02:28:45;11.30;99.90
13148;DHT22;6639;50.956;4.242;2023-12-20T02:31:12;11.10;99.90
13148;DHT22;6639;50.956;4.242;2023-12-20T02:33:39;11.10;99.90
13148;DHT22;6639;50.956;4.242;2023-12-20T02:36:07;11.20;99.90
13148;DHT22;6639;50.956;4.242;2023-12-20T02:38:36;11.50;99.90
13148;DHT22;6639;50.956;4.242;2023-12-20T02:41:03;11.50;99.90
13148;DHT22;6639;50.956;4.242;2023-12-20T02:43:30;11.30;99.90
13148;DHT22;6639;50.956;4.242;2023-12-20T02:45:57;11.20;99.90
13148;DHT22;6639;50.956;4.242;2023-12-20T02:48:24;11.00;99.90
13148;DHT22;6639;50.956;4.242;2023-12-20T02:50:53;11.00;99.90
13148;DHT22;6639;50.956;4.242;2023-12-20T02:53:21;11.20;99.90
13148;DHT22;6639;50.956;4.242;2023-12-20T02:55:49;11.10;99.90
13148;DHT22;6639;50.956;4.242;2023-12-20T02:58:16;11.10;99.90
13148;DHT22;6639;50.956;4.242;2023-12-20T03:00:44;10.80;99.90
13148;DHT22;6639;50.956;4.242;2023-12-20T03:03:10;10.70;99.90
13148;DHT22;6639;50.956;4.242;2023-12-20T03:05:38;10.80;99.90
13148;DHT22;6639;50.956;4.242;2023-12-20T03:08:05;10.90;99.90
13148;DHT22;6639;50.956;4.242;2023-12-20T03:10:32;11.00;99.90
13148;DHT22;6639;50.956;4.242;2023-12-20T03:13:00;10.70;99.90
13148;DHT22;6639;50.956;4.242;2023-12-20T03:15:27;10.70;99.90
13148;DHT22;6639;50.956;4.242;2023-12-20T03:17:54;10.50;99.90
13148;DHT22;6639;50.956;4.242;2023-12-20T03:20:21;10.70;99.90
13148;DHT22;6639;50.956;4.242;2023-12-20T03:22:48;10.90;99.90
13148;DHT22;6639;50.956;4.242;2023-12-20T03:25:15;10.80;99.90
13148;DHT22;6639;50.956;4.242;2023-12-20T03:27:42;10.80;99.90
13148;DHT22;6639;50.956;4.242;2023-12-20T03:30:11;10.90;99.90
13148;DHT22;6639;50.956;4.242;2023-12-20T03:32:38;10.90;99.90
13148;DHT22;6639;50.956;4.242;2023-12-20T03:35:05;11.00;99.90
13148;DHT22;6639;50.956;4.242;2023-12-20T03:37:33;10.80;99.90
13148;DHT22;6639;50.956;4.242;2023-12-20T03:40:00;11.00;99.90
13148;DHT22;6639;50.956;4.242;2023-12-20T03:42:27;11.20;99.90
13148;DHT22;6639;50.956;4.242;2023-12-20T03:44:54;11.00;99.90
13148;DHT22;6639;50.956;4.242;2023-12-20T03:47:22;11.20;99.90
13148;DHT22;6639;50.956;4.242;2023-12-20T03:49:49;11.00;99.90
13148;DHT22;6639;50.956;4.242;2023-12-20T03:52:16;10.80;99.90
13148;DHT22;6639;50.956;4.242;2023-12-20T03:54:43;10.70;99.90
13148;DHT22;6639;50.956;4.242;2023-12-20T03:57:10;10.80;99.90
13148;DHT22;6639;50.956;4.242;2023-12-20T03:59:37;11.00;99.90
13148;DHT22;6639;50.956;4.242;2023-12-20T04:02:05;11.10;99.90
13148;DHT22;6639;50.956;4.242;2023-12-20T04:04:34;11.30;99.90
13148;DHT22;6639;50.956;4.242;2023-12-20T04:07:01;11.30;99.90
13148;DHT22;6639;50.956;4.242;2023-12-20T04:09:28;11.20;99.90
13148;DHT22;6639;50.956;4.242;2023-12-20T04:11:54;11.10;99.90
13148;DHT22;6639;50.956;4.242;2023-12-20T04:14:21;11.20;99.90
13148;DHT22;6639;50.956;4.242;2023-12-20T04:16:48;11.10;99.90
13148;DHT22;6639;50.956;4.242;2023-12-20T04:19:15;11.00;99.90
13148;DHT22;6639;50.956;4.242;2023-12-20T04:21:43;10.90;99.90
13148;DHT22;6639;50.956;4.242;2023-12-20T04:24:10;11.10;99.90
13148;DHT22;6639;50.956;4.242;2023-12-20T04:26:37;11.10;99.90
13148;DHT22;6639;50.956;4.242;2023-12-20T04:29:04;11.10;99.90
13148;DHT22;6639;50.956;4.242;2023-12-20T04:31:31;11.00;99.90
13148;DHT22;6639;50.956;4.242;2023-12-20T04:33:58;11.20;99.90
13148;DHT22;6639;50.956;4.242;2023-12-20T04:36:25;11.40;99.90
13148;DHT22;6639;50.956;4.242;2023-12-20T04:38:54;11.30;99.90
13148;DHT22;6639;50.956;4.242;2023-12-20T04:41:21;11.30;99.90
13148;DHT22;6639;50.956;4.242;2023-12-20T04:43:47;11.40;99.90
13148;DHT22;6639;50.956;4.242;2023-12-20T04:46:14;11.50;99.90
13148;DHT22;6639;50.956;4.242;2023-12-20T04:48:41;11.20;99.90
13148;DHT22;6639;50.956;4.242;2023-12-20T04:51:09;11.20;99.90
13148;DHT22;6639;50.956;4.242;2023-12-20T04:53:36;11.30;99.90
13148;DHT22;6639;50.956;4.242;2023-12-20T04:56:05;11.30;99.90
13148;DHT22;6639;50.956;4.242;2023-12-20T04:58:32;11.00;99.90
13148;DHT22;6639;50.956;4.242;2023-12-20T05:00:59;10.90;99.90
13148;DHT22;6639;50.956;4.242;2023-12-20T05:03:26;10.90;99.90
13148;DHT22;6639;50.956;4.242;2023-12-20T05:05:53;10.70;99.90
13148;DHT22;6639;50.956;4.242;2023-12-20T05:08:20;10.80;99.90
13148;DHT22;6639;50.956;4.242;2023-12-20T05:10:47;10.60;99.90
13148;DHT22;6639;50.956;4.242;2023-12-20T05:13:15;10.40;99.90
13148;DHT22;6639;50.956;4.242;2023-12-20T05:15:42;10.50;99.90
13148;DHT22;6639;50.956;4.242;2023-12-20T05:18:09;10.70;99.90
13148;DHT22;6639;50.956;4.242;2023-12-20T05:20:36;10.90;99.90
13148;DHT22;6639;50.956;4.242;2023-12-20T05:23:03;10.90;99.90
13148;DHT22;6639;50.956;4.242;2023-12-20T05:25:30;10.90;99.90
13148;DHT22;6639;50.956;4.242;2023-12-20T05:27:57;10.60;99.90
13148;DHT22;6639;50.956;4.242;2023-12-20T05:30:26;10.80;99.90
13148;DHT22;6639;50.956;4.242;2023-12-20T05:32:53;10.70;99.90
13148;DHT22;6639;50.956;4.242;2023-12-20T05:35:20;11.10;99.90
13148;DHT22;6639;50.956;4.242;2023-12-20T05:37:47;10.90;99.90
13148;DHT22;6639;50.956;4.242;2023-12-20T05:40:14;10.80;99.90
13148;DHT22;6639;50.956;4.242;2023-12-20T05:42:41;11.00;99.90
13148;DHT22;6639;50.956;4.242;2023-12-20T05:45:09;11.10;99.90
13148;DHT22;6639;50.956;4.242;2023-12-20T05:47:37;11.30;99.90
13148;DHT22;6639;50.956;4.242;2023-12-20T05:50:05;11.10;99.90
13148;DHT22;6639;50.956;4.242;2023-12-20T05:52:32;11.00;99.90
13148;DHT22;6639;50.956;4.242;2023-12-20T05:54:59;11.00;99.90
13148;DHT22;6639;50.956;4.242;2023-12-20T05:57:26;10.90;99.90
13148;DHT22;6639;50.956;4.242;2023-12-20T05:59:54;10.50;99.90
13148;DHT22;6639;50.956;4.242;2023-12-20T06:02:21;10.50;99.90
13148;DHT22;6639;50.956;4.242;2023-12-20T06:04:49;10.80;99.90
13148;DHT22;6639;50.956;4.242;2023-12-20T06:07:17;10.70;99.90
13148;DHT22;6639;50.956;4.242;2023-12-20T06:09:44;10.60;99.90
13148;DHT22;6639;50.956;4.242;2023-12-20T06:12:10;10.60;99.90
13148;DHT22;6639;50.956;4.242;2023-12-20T06:14:37;10.80;99.90
13148;DHT22;6639;50.956;4.242;2023-12-20T06:17:04;10.70;99.90
13148;DHT22;6639;50.956;4.242;2023-12-20T06:19:31;10.60;99.90
13148;DHT22;6639;50.956;4.242;2023-12-20T06:21:59;10.60;99.90
13148;DHT22;6639;50.956;4.242;2023-12-20T06:24:26;10.50;99.90
13148;DHT22;6639;50.956;4.242;2023-12-20T06:26:53;10.60;99.90
13148;DHT22;6639;50.956;4.242;2023-12-20T06:29:21;10.80;99.90
13148;DHT22;6639;50.956;4.242;2023-12-20T06:31:47;10.70;99.90
13148;DHT22;6639;50.956;4.242;2023-12-20T06:34:14;10.90;99.90
13148;DHT22;6639;50.956;4.242;2023-12-20T06:36:41;11.00;99.90
13148;DHT22;6639;50.956;4.242;2023-12-20T06:39:10;11.10;99.90
13148;DHT22;6639;50.956;4.242;2023-12-20T06:41:38;10.80;99.90
13148;DHT22;6639;50.956;4.242;2023-12-20T06:44:05;11.00;99.90
13148;DHT22;6639;50.956;4.242;2023-12-20T06:46:32;11.00;99.90
13148;DHT22;6639;50.956;4.242;2023-12-20T06:48:59;10.80;99.90
13148;DHT22;6639;50.956;4.242;2023-12-20T06:51:26;11.00;99.90
13148;DHT22;6639;50.956;4.242;2023-12-20T06:53:53;11.00;99.90
13148;DHT22;6639;50.956;4.242;2023-12-20T06:56:21;11.00;99.90
13148;DHT22;6639;50.956;4.242;2023-12-20T06:58:48;11.20;99.90
13148;DHT22;6639;50.956;4.242;2023-12-20T07:01:15;11.10;99.90
13148;DHT22;6639;50.956;4.242;2023-12-20T07:03:43;10.80;99.90
13148;DHT22;6639;50.956;4.242;2023-12-20T07:06:10;11.00;99.90
13148;DHT22;6639;50.956;4.242;2023-12-20T07:08:36;11.20;99.90
13148;DHT22;6639;50.956;4.242;2023-12-20T07:11:03;11.20;99.90
13148;DHT22;6639;50.956;4.242;2023-12-20T07:13:32;11.00;99.90
13148;DHT22;6639;50.956;4.242;2023-12-20T07:15:59;10.60;99.90
13148;DHT22;6639;50.956;4.242;2023-12-20T07:18:26;10.70;99.90
13148;DHT22;6639;50.956;4.242;2023-12-20T07:20:52;10.90;99.90
13148;DHT22;6639;50.956;4.242;2023-12-20T07:23:21;10.80;99.90
13148;DHT22;6639;50.956;4.242;2023-12-20T07:25:49;10.90;99.90
13148;DHT22;6639;50.956;4.242;2023-12-20T07:28:16;10.80;99.90
13148;DHT22;6639;50.956;4.242;2023-12-20T07:30:44;10.80;99.90
13148;DHT22;6639;50.956;4.242;2023-12-20T07:33:11;10.80;99.90
13148;DHT22;6639;50.956;4.242;2023-12-20T07:35:38;10.80;99.90
13148;DHT22;6639;50.956;4.242;2023-12-20T07:38:05;10.90;99.90
13148;DHT22;6639;50.956;4.242;2023-12-20T07:40:33;10.80;99.90
13148;DHT22;6639;50.956;4.242;2023-12-20T07:43:00;10.60;99.90
13148;DHT22;6639;50.956;4.242;2023-12-20T07:45:27;10.70;99.90
13148;DHT22;6639;50.956;4.242;2023-12-20T07:47:55;10.90;99.90
13148;DHT22;6639;50.956;4.242;2023-12-20T07:50:22;10.80;99.90
13148;DHT22;6639;50.956;4.242;2023-12-20T07:52:49;10.50;99.90
13148;DHT22;6639;50.956;4.242;2023-12-20T07:55:16;10.50;99.90
13148;DHT22;6639;50.956;4.242;2023-12-20T07:57:42;10.60;99.90
13148;DHT22;6639;50.956;4.242;2023-12-20T08:00:10;10.30;99.90
13148;DHT22;6639;50.956;4.242;2023-12-20T08:02:37;10.50;99.90
13148;DHT22;6639;50.956;4.242;2023-12-20T08:05:06;10.60;99.90
13148;DHT22;6639;50.956;4.242;2023-12-20T08:07:33;10.50;99.90
13148;DHT22;6639;50.956;4.242;2023-12-20T08:10:00;10.30;99.90
13148;DHT22;6639;50.956;4.242;2023-12-20T08:12:27;10.10;99.90
13148;DHT22;6639;50.956;4.242;2023-12-20T08:14:54;10.00;99.90
13148;DHT22;6639;50.956;4.242;2023-12-20T08:17:22;10.10;99.90
13148;DHT22;6639;50.956;4.242;2023-12-20T08:19:50;10.30;99.90
13148;DHT22;6639;50.956;4.242;2023-12-20T08:22:19;10.30;99.90
13148;DHT22;6639;50.956;4.242;2023-12-20T08:24:45;10.40;99.90
13148;DHT22;6639;50.956;4.242;2023-12-20T08:27:12;10.40;99.90
13148;DHT22;6639;50.956;4.242;2023-12-20T08:29:39;10.50;99.90
13148;DHT22;6639;50.956;4.242;2023-12-20T08:32:06;10.50;99.90
13148;DHT22;6639;50.956;4.242;2023-12-20T08:34:33;10.50;99.90
13148;DHT22;6639;50.956;4.242;2023-12-20T08:37:00;10.50;99.90
13148;DHT22;6639;50.956;4.242;2023-12-20T08:39:29;10.60;99.90
13148;DHT22;6639;50.956;4.242;2023-12-20T08:41:56;10.40;99.90
13148;DHT22;6639;50.956;4.242;2023-12-20T08:44:23;10.40;99.90
13148;DHT22;6639;50.956;4.242;2023-12-20T08:46:50;10.30;99.90
13148;DHT22;6639;50.956;4.242;2023-12-20T08:49:17;10.30;99.90
13148;DHT22;6639;50.956;4.242;2023-12-20T08:51:44;10.30;99.90
13148;DHT22;6639;50.956;4.242;2023-12-20T08:54:11;10.20;99.90
13148;DHT22;6639;50.956;4.242;2023-12-20T08:56:40;10.10;99.90
13148;DHT22;6639;50.956;4.242;2023-12-20T08:59:07;10.20;99.90
13148;DHT22;6639;50.956;4.242;2023-12-20T09:01:35;10.20;99.90
13148;DHT22;6639;50.956;4.242;2023-12-20T09:04:01;10.40;99.90
13148;DHT22;6639;50.956;4.242;2023-12-20T09:06:28;10.50;99.90
13148;DHT22;6639;50.956;4.242;2023-12-20T09:08:55;10.70;99.90
13148;DHT22;6639;50.956;4.242;2023-12-20T09:11:22;11.00;99.90
13148;DHT22;6639;50.956;4.242;2023-12-20T09:13:50;11.20;99.90
13148;DHT22;6639;50.956;4.242;2023-12-20T09:16:17;11.20;99.90
13148;DHT22;6639;50.956;4.242;2023-12-20T09:18:44;11.60;99.90
13148;DHT22;6639;50.956;4.242;2023-12-20T09:21:11;11.80;99.90
13148;DHT22;6639;50.956;4.242;2023-12-20T09:23:39;11.80;99.90
13148;DHT22;6639;50.956;4.242;2023-12-20T09:26:05;11.80;99.90
13148;DHT22;6639;50.956;4.242;2023-12-20T09:28:32;11.90;99.90
13148;DHT22;6639;50.956;4.242;2023-12-20T09:31:04;12.00;99.90
13148;DHT22;6639;50.956;4.242;2023-12-20T09:33:32;12.10;99.90
13148;DHT22;6639;50.956;4.242;2023-12-20T09:35:59;12.20;99.90
13148;DHT22;6639;50.956;4.242;2023-12-20T09:38:26;12.00;99.90
13148;DHT22;6639;50.956;4.242;2023-12-20T09:40:53;12.00;99.90
13148;DHT22;6639;50.956;4.242;2023-12-20T09:43:24;11.90;99.90
13148;DHT22;6639;50.956;4.242;2023-12-20T09:45:54;11.70;99.90
13148;DHT22;6639;50.956;4.242;2023-12-20T09:48:29;11.60;99.90
13148;DHT22;6639;50.956;4.242;2023-12-20T09:50:57;11.60;99.90
13148;DHT22;6639;50.956;4.242;2023-12-20T09:53:25;11.50;99.90
13148;DHT22;6639;50.956;4.242;2023-12-20T09:55:56;11.60;99.90
13148;DHT22;6639;50.956;4.242;2023-12-20T09:58:25;12.10;99.90
13148;DHT22;6639;50.956;4.242;2023-12-20T10:00:53;12.20;99.90
13148;DHT22;6639;50.956;4.242;2023-12-20T10:03:25;11.90;99.90
13148;DHT22;6639;50.956;4.242;2023-12-20T10:05:55;11.80;99.90
13148;DHT22;6639;50.956;4.242;2023-12-20T10:08:24;12.30;99.90
13148;DHT22;6639;50.956;4.242;2023-12-20T10:10:51;12.50;99.90
13148;DHT22;6639;50.956;4.242;2023-12-20T10:13:18;12.20;99.90
13148;DHT22;6639;50.956;4.242;2023-12-20T10:15:45;11.90;99.90
13148;DHT22;6639;50.956;4.242;2023-12-20T10:18:12;11.80;99.90
13148;DHT22;6639;50.956;4.242;2023-12-20T10:20:40;11.70;99.90
13148;DHT22;6639;50.956;4.242;2023-12-20T10:23:09;11.50;99.90
13148;DHT22;6639;50.956;4.242;2023-12-20T10:25:36;11.70;99.90
13148;DHT22;6639;50.956;4.242;2023-12-20T10:28:10;11.70;99.90
13148;DHT22;6639;50.956;4.242;2023-12-20T10:30:37;11.60;99.90
13148;DHT22;6639;50.956;4.242;2023-12-20T10:33:05;11.60;99.90
13148;DHT22;6639;50.956;4.242;2023-12-20T10:35:33;11.70;99.90
13148;DHT22;6639;50.956;4.242;2023-12-20T10:38:03;11.60;99.90
13148;DHT22;6639;50.956;4.242;2023-12-20T10:40:34;11.80;99.90
13148;DHT22;6639;50.956;4.242;2023-12-20T10:43:03;11.80;99.90
13148;DHT22;6639;50.956;4.242;2023-12-20T10:45:31;11.80;99.90
13148;DHT22;6639;50.956;4.242;2023-12-20T10:47:58;11.80;99.90
13148;DHT22;6639;50.956;4.242;2023-12-20T10:50:27;11.70;99.90
13148;DHT22;6639;50.956;4.242;2023-12-20T10:52:54;11.50;99.90
13148;DHT22;6639;50.956;4.242;2023-12-20T10:55:22;11.50;99.90
13148;DHT22;6639;50.956;4.242;2023-12-20T10:57:52;11.60;99.90
13148;DHT22;6639;50.956;4.242;2023-12-20T11:00:21;11.70;99.90
13148;DHT22;6639;50.956;4.242;2023-12-20T11:02:50;11.70;99.90
13148;DHT22;6639;50.956;4.242;2023-12-20T11:05:25;11.90;99.90
13148;DHT22;6639;50.956;4.242;2023-12-20T11:08:00;11.70;99.90
13148;DHT22;6639;50.956;4.242;2023-12-20T11:10:31;11.50;99.90
13148;DHT22;6639;50.956;4.242;2023-12-20T11:13:20;11.40;99.90
13148;DHT22;6639;50.956;4.242;2023-12-20T11:15:48;11.50;99.90
13148;DHT22;6639;50.956;4.242;2023-12-20T11:18:15;11.50;99.90
13148;DHT22;6639;50.956;4.242;2023-12-20T11:20:42;12.00;99.90
13148;DHT22;6639;50.956;4.242;2023-12-20T11:23:10;12.10;99.90
13148;DHT22;6639;50.956;4.242;2023-12-20T11:25:52;12.10;99.90
13148;DHT22;6639;50.956;4.242;2023-12-20T11:28:23;11.90;99.90
13148;DHT22;6639;50.956;4.242;2023-12-20T11:30:51;12.00;99.90
13148;DHT22;6639;50.956;4.242;2023-12-20T11:33:21;11.90;99.90
13148;DHT22;6639;50.956;4.242;2023-12-20T11:35:49;11.70;99.90
13148;DHT22;6639;50.956;4.242;2023-12-20T11:38:16;11.70;99.90
13148;DHT22;6639;50.956;4.242;2023-12-20T11:40:43;11.70;99.90
13148;DHT22;6639;50.956;4.242;2023-12-20T11:43:10;11.80;99.90
13148;DHT22;6639;50.956;4.242;2023-12-20T11:45:49;11.60;99.90
13148;DHT22;6639;50.956;4.242;2023-12-20T11:48:17;11.80;99.90
13148;DHT22;6639;50.956;4.242;2023-12-20T11:50:45;12.00;99.90
13148;DHT22;6639;50.956;4.242;2023-12-20T11:53:12;12.40;99.90
13148;DHT22;6639;50.956;4.242;2023-12-20T11:55:39;12.10;99.90
13148;DHT22;6639;50.956;4.242;2023-12-20T11:58:06;11.80;99.90
13148;DHT22;6639;50.956;4.242;2023-12-20T12:00:34;11.80;99.90
13148;DHT22;6639;50.956;4.242;2023-12-20T12:03:03;11.80;99.90
13148;DHT22;6639;50.956;4.242;2023-12-20T12:05:31;11.90;99.90
13148;DHT22;6639;50.956;4.242;2023-12-20T12:07:58;12.20;99.90
13148;DHT22;6639;50.956;4.242;2023-12-20T12:10:25;12.40;99.90
13148;DHT22;6639;50.956;4.242;2023-12-20T12:12:52;12.20;99.90
13148;DHT22;6639;50.956;4.242;2023-12-20T12:15:19;12.00;99.90
13148;DHT22;6639;50.956;4.242;2023-12-20T12:17:53;11.80;99.90
13148;DHT22;6639;50.956;4.242;2023-12-20T12:20:22;11.50;99.90
13148;DHT22;6639;50.956;4.242;2023-12-20T12:22:57;11.60;99.90
13148;DHT22;6639;50.956;4.242;2023-12-20T12:25:25;11.90;99.90
13148;DHT22;6639;50.956;4.242;2023-12-20T12:27:52;12.00;99.90
13148;DHT22;6639;50.956;4.242;2023-12-20T12:30:19;12.30;99.90
13148;DHT22;6639;50.956;4.242;2023-12-20T12:32:46;12.50;99.90
13148;DHT22;6639;50.956;4.242;2023-12-20T12:35:14;12.20;99.90
13148;DHT22;6639;50.956;4.242;2023-12-20T12:37:43;12.50;99.90
13148;DHT22;6639;50.956;4.242;2023-12-20T12:40:11;12.60;99.90
13148;DHT22;6639;50.956;4.242;2023-12-20T12:42:39;12.60;99.90
13148;DHT22;6639;50.956;4.242;2023-12-20T12:45:07;12.70;99.90
13148;DHT22;6639;50.956;4.242;2023-12-20T12:47:34;12.40;99.90
13148;DHT22;6639;50.956;4.242;2023-12-20T12:50:01;12.10;99.90
13148;DHT22;6639;50.956;4.242;2023-12-20T12:52:28;12.10;99.90
13148;DHT22;6639;50.956;4.242;2023-12-20T12:54:56;12.20;99.90
13148;DHT22;6639;50.956;4.242;2023-12-20T12:57:23;12.20;99.90
13148;DHT22;6639;50.956;4.242;2023-12-20T12:59:50;12.00;99.90
13148;DHT22;6639;50.956;4.242;2023-12-20T13:02:17;11.90;99.90
13148;DHT22;6639;50.956;4.242;2023-12-20T13:04:45;11.90;99.90
13148;DHT22;6639;50.956;4.242;2023-12-20T13:07:12;11.70;99.90
13148;DHT22;6639;50.956;4.242;2023-12-20T13:09:39;11.90;99.90
13148;DHT22;6639;50.956;4.242;2023-12-20T13:12:08;11.90;99.90
13148;DHT22;6639;50.956;4.242;2023-12-20T13:14:35;12.30;99.90
13148;DHT22;6639;50.956;4.242;2023-12-20T13:17:03;12.30;99.90
13148;DHT22;6639;50.956;4.242;2023-12-20T13:19:31;12.20;99.90
13148;DHT22;6639;50.956;4.242;2023-12-20T13:21:58;12.20;99.90
13148;DHT22;6639;50.956;4.242;2023-12-20T13:24:25;12.20;99.90
13148;DHT22;6639;50.956;4.242;2023-12-20T13:26:54;12.30;99.90
13148;DHT22;6639;50.956;4.242;2023-12-20T13:29:24;12.10;99.90
13148;DHT22;6639;50.956;4.242;2023-12-20T13:31:52;12.30;99.90
13148;DHT22;6639;50.956;4.242;2023-12-20T13:34:20;12.40;99.90
13148;DHT22;6639;50.956;4.242;2023-12-20T13:36:47;12.40;99.90
13148;DHT22;6639;50.956;4.242;2023-12-20T13:39:16;12.60;99.90
13148;DHT22;6639;50.956;4.242;2023-12-20T13:41:43;12.70;99.90
13148;DHT22;6639;50.956;4.242;2023-12-20T13:44:10;12.60;99.90
13148;DHT22;6639;50.956;4.242;2023-12-20T13:46:40;12.70;99.90
13148;DHT22;6639;50.956;4.242;2023-12-20T13:49:07;12.60;99.90
13148;DHT22;6639;50.956;4.242;2023-12-20T13:51:34;12.70;99.90
13148;DHT22;6639;50.956;4.242;2023-12-20T13:54:01;12.80;99.90
13148;DHT22;6639;50.956;4.242;2023-12-20T13:56:28;12.70;99.90
13148;DHT22;6639;50.956;4.242;2023-12-20T13:58:55;12.60;99.90
13148;DHT22;6639;50.956;4.242;2023-12-20T14:01:23;12.50;99.90
13148;DHT22;6639;50.956;4.242;2023-12-20T14:03:52;12.60;99.90
13148;DHT22;6639;50.956;4.242;2023-12-20T14:06:18;12.70;99.90
13148;DHT22;6639;50.956;4.242;2023-12-20T14:08:45;12.50;99.90
13148;DHT22;6639;50.956;4.242;2023-12-20T14:11:13;12.60;99.90
13148;DHT22;6639;50.956;4.242;2023-12-20T14:13:41;12.80;99.90
13148;DHT22;6639;50.956;4.242;2023-12-20T14:16:08;12.80;99.90
13148;DHT22;6639;50.956;4.242;2023-12-20T14:18:36;12.60;99.90
13148;DHT22;6639;50.956;4.242;2023-12-20T14:21:04;12.50;99.90
13148;DHT22;6639;50.956;4.242;2023-12-20T14:23:32;12.60;99.90
13148;DHT22;6639;50.956;4.242;2023-12-20T14:25:59;12.60;99.90
13148;DHT22;6639;50.956;4.242;2023-12-20T14:28:26;12.70;99.90
13148;DHT22;6639;50.956;4.242;2023-12-20T14:30:53;12.80;99.90
13148;DHT22;6639;50.956;4.242;2023-12-20T14:33:20;13.00;99.90
13148;DHT22;6639;50.956;4.242;2023-12-20T14:35:47;13.30;99.90
13148;DHT22;6639;50.956;4.242;2023-12-20T14:38:14;13.30;99.90
13148;DHT22;6639;50.956;4.242;2023-12-20T14:40:41;13.20;99.90
13148;DHT22;6639;50.956;4.242;2023-12-20T14:43:08;13.20;99.90
13148;DHT22;6639;50.956;4.242;2023-12-20T14:45:35;13.00;99.90
13148;DHT22;6639;50.956;4.242;2023-12-20T14:48:03;12.70;99.90
13148;DHT22;6639;50.956;4.242;2023-12-20T14:50:30;12.90;99.90
13148;DHT22;6639;50.956;4.242;2023-12-20T14:52:57;13.10;99.90
13148;DHT22;6639;50.956;4.242;2023-12-20T14:55:26;12.80;99.90
13148;DHT22;6639;50.956;4.242;2023-12-20T14:57:55;12.80;99.90
13148;DHT22;6639;50.956;4.242;2023-12-20T15:00:22;13.00;99.90
13148;DHT22;6639;50.956;4.242;2023-12-20T15:02:48;13.10;99.90
13148;DHT22;6639;50.956;4.242;2023-12-20T15:05:16;13.10;99.90
13148;DHT22;6639;50.956;4.242;2023-12-20T15:07:43;13.20;99.90
13148;DHT22;6639;50.956;4.242;2023-12-20T15:10:10;12.90;99.90
13148;DHT22;6639;50.956;4.242;2023-12-20T15:12:38;12.50;99.90
13148;DHT22;6639;50.956;4.242;2023-12-20T15:15:06;12.40;99.90
13148;DHT22;6639;50.956;4.242;2023-12-20T15:17:35;12.40;99.90
13148;DHT22;6639;50.956;4.242;2023-12-20T15:20:02;12.30;99.90
13148;DHT22;6639;50.956;4.242;2023-12-20T15:22:30;12.20;99.90
13148;DHT22;6639;50.956;4.242;2023-12-20T15:24:59;12.40;99.90
13148;DHT22;6639;50.956;4.242;2023-12-20T15:27:26;12.70;99.90
13148;DHT22;6639;50.956;4.242;2023-12-20T15:29:55;12.70;99.90
13148;DHT22;6639;50.956;4.242;2023-12-20T15:32:22;12.60;99.90
13148;DHT22;6639;50.956;4.242;2023-12-20T15:34:49;12.90;99.90
13148;DHT22;6639;50.956;4.242;2023-12-20T15:37:17;13.10;99.90
13148;DHT22;6639;50.956;4.242;2023-12-20T15:39:47;13.20;99.90
13148;DHT22;6639;50.956;4.242;2023-12-20T15:42:13;13.30;99.90
13148;DHT22;6639;50.956;4.242;2023-12-20T15:44:40;13.40;99.90
13148;DHT22;6639;50.956;4.242;2023-12-20T15:47:09;13.40;99.90